Terminal Aerodrome Forecast
Issued by NWS Shreveport, LA

Home | Current Version | Previous Version | Text Only | Print | Product List | Glossary On
Versions: 1 2 3 4 5 6 7 8 9 10 11 12
000
FTUS44 KSHV 182300
TAFGGG
TAF
KGGG 182339Z 1900/1924 04004KT 6SM BR OVC008
     FM190600 04004KT 5SM BR OVC007
     FM191000 03004KT 4SM -RA BR OVC004
     FM191200 03006KT 3SM SHRA BR OVC004
     FM191800 05007KT 4SM -RA BR OVC006
     FM192200 05006KT 6SM BR OVC009=

USA.gov is the U.S. government's official web portal to all federal, state and local government web resources and services.